Time;durP1;ratioP1;P1;durP2;ratioP2;P2;SDS_P1;SDS_P2;PMS_P1;PMS_P2;Temp;Humidity;BMP_temperature;BMP_pressure;BME280_temperature;BME280_humidity;BME280_pressure;Samples;Min_cycle;Max_cycle;Signal;HPM_P1;HPM_P2
2021/06/09 00:01:01;;;;;;;;;;;22.70;53.70;;;;;;499887;238;1327;-76
2021/06/09 00:03:03;;;;;;;;;;;22.70;53.60;;;;;;499960;238;1116;-76
2021/06/09 00:05:04;;;;;;;;;;;22.70;53.70;;;;;;499929;238;975;-76
2021/06/09 00:07:05;;;;;;;;;;;22.80;53.70;;;;;;499820;238;1291;-76
2021/06/09 00:09:06;;;;;;;;;;;22.80;53.60;;;;;;499933;238;2136;-76
2021/06/09 00:11:08;;;;;;;;;;;22.80;53.60;;;;;;499881;238;1230;-76
2021/06/09 00:13:09;;;;;;;;;;;22.80;53.60;;;;;;499878;238;1056;-76
2021/06/09 00:15:10;;;;;;;;;;;22.80;53.70;;;;;;499977;238;1220;-76
2021/06/09 00:17:12;;;;;;;;;;;22.90;53.50;;;;;;499782;238;1180;-76
2021/06/09 00:19:13;;;;;;;;;;;22.70;53.70;;;;;;499952;238;1041;-76
2021/06/09 00:21:14;;;;;;;;;;;22.60;54.10;;;;;;499822;238;1104;-76
2021/06/09 00:23:17;;;;;;;;;;;22.50;54.50;;;;;;500027;238;1052;-76
2021/06/09 00:25:18;;;;;;;;;;;22.40;54.70;;;;;;500126;238;1374;-76
2021/06/09 00:27:19;;;;;;;;;;;22.40;55.00;;;;;;499976;238;1177;-76
2021/06/09 00:29:20;;;;;;;;;;;22.30;55.10;;;;;;499871;238;2195;-76
2021/06/09 00:31:21;;;;;;;;;;;22.30;55.20;;;;;;499846;238;1125;-77
2021/06/09 00:33:25;;;;;;;;;;;22.30;55.20;;;;;;499890;238;1088;-76
2021/06/09 00:35:24;;;;;;;;;;;22.20;55.20;;;;;;499848;238;1407;-76
2021/06/09 00:37:25;;;;;;;;;;;22.20;55.30;;;;;;500006;238;1186;-76
2021/06/09 00:39:26;;;;;;;;;;;22.20;55.30;;;;;;499973;238;972;-76
2021/06/09 00:41:28;;;;;;;;;;;22.20;55.40;;;;;;499981;238;1164;-76
2021/06/09 00:43:31;;;;;;;;;;;22.20;55.30;;;;;;499886;238;957;-76
2021/06/09 00:45:30;;;;;;;;;;;22.20;55.30;;;;;;500030;238;1402;-76
2021/06/09 00:47:32;;;;;;;;;;;22.20;55.30;;;;;;499904;238;1101;-76
2021/06/09 00:49:33;;;;;;;;;;;22.20;55.20;;;;;;499850;238;2140;-76
2021/06/09 00:51:34;;;;;;;;;;;22.20;55.20;;;;;;499867;238;1203;-76
2021/06/09 00:53:37;;;;;;;;;;;22.30;55.00;;;;;;499961;238;1010;-76
2021/06/09 00:55:37;;;;;;;;;;;22.40;54.70;;;;;;500078;238;1499;-76
2021/06/09 00:57:38;;;;;;;;;;;22.40;54.60;;;;;;500015;238;1127;-76
2021/06/09 00:59:39;;;;;;;;;;;22.50;54.30;;;;;;499892;238;1088;-76
2021/06/09 01:01:41;;;;;;;;;;;22.60;54.30;;;;;;499880;238;1204;-76
2021/06/09 01:03:42;;;;;;;;;;;22.60;54.20;;;;;;499870;238;969;-76
2021/06/09 01:05:43;;;;;;;;;;;22.70;54.10;;;;;;499900;238;1164;-76
2021/06/09 01:07:44;;;;;;;;;;;22.70;54.00;;;;;;499990;238;1131;-76
2021/06/09 01:09:46;;;;;;;;;;;22.70;53.90;;;;;;499942;238;2183;-76
2021/06/09 01:11:47;;;;;;;;;;;22.70;53.90;;;;;;499862;238;1125;-76
2021/06/09 01:13:48;;;;;;;;;;;22.70;54.00;;;;;;499910;238;1154;-76
2021/06/09 01:15:49;;;;;;;;;;;22.60;54.00;;;;;;499961;238;1043;-76
2021/06/09 01:17:51;;;;;;;;;;;22.70;53.90;;;;;;499955;238;1074;-76
2021/06/09 01:19:52;;;;;;;;;;;22.70;54.00;;;;;;499930;238;957;-76
2021/06/09 01:21:53;;;;;;;;;;;22.70;53.90;;;;;;499896;238;1197;-76
2021/06/09 01:23:55;;;;;;;;;;;22.60;54.00;;;;;;499955;238;967;-76
2021/06/09 01:25:58;;;;;;;;;;;22.70;54.00;;;;;;499991;238;1194;-76
2021/06/09 01:27:59;;;;;;;;;;;22.70;53.90;;;;;;500020;238;1125;-76
2021/06/09 01:30:00;;;;;;;;;;;22.70;53.80;;;;;;499937;238;2183;-76
2021/06/09 01:32:02;;;;;;;;;;;22.70;53.90;;;;;;499933;238;1319;-76
2021/06/09 01:34:05;;;;;;;;;;;22.70;53.90;;;;;;499847;238;1184;-76
2021/06/09 01:36:06;;;;;;;;;;;22.70;54.00;;;;;;499910;238;1484;-76
2021/06/09 01:38:07;;;;;;;;;;;22.60;54.00;;;;;;499952;238;1175;-76
2021/06/09 01:40:09;;;;;;;;;;;22.70;54.00;;;;;;499912;238;1118;-76
2021/06/09 01:42:10;;;;;;;;;;;22.60;53.90;;;;;;499962;238;1170;-76
2021/06/09 01:44:11;;;;;;;;;;;22.60;53.90;;;;;;499923;238;976;-76
2021/06/09 01:46:13;;;;;;;;;;;22.70;53.90;;;;;;499824;238;1139;-76
2021/06/09 01:48:14;;;;;;;;;;;22.60;53.90;;;;;;499896;238;2179;-77
2021/06/09 01:50:15;;;;;;;;;;;22.60;53.90;;;;;;499958;238;945;-76
2021/06/09 01:52:17;;;;;;;;;;;22.60;53.90;;;;;;499902;238;1200;-76
2021/06/09 01:54:19;;;;;;;;;;;22.60;53.90;;;;;;499949;238;1044;-76
2021/06/09 01:56:20;;;;;;;;;;;22.70;53.80;;;;;;499870;235;1248;-76
2021/06/09 01:58:21;;;;;;;;;;;22.70;53.80;;;;;;499913;238;1066;-76
2021/06/09 02:00:24;;;;;;;;;;;22.70;53.80;;;;;;500022;238;1070;-76
2021/06/09 02:02:25;;;;;;;;;;;22.70;53.70;;;;;;499792;238;1420;-76
2021/06/09 02:04:26;;;;;;;;;;;22.70;53.70;;;;;;499968;238;1090;-76
2021/06/09 02:06:27;;;;;;;;;;;22.70;53.70;;;;;;499924;238;1217;-76
2021/06/09 02:08:29;;;;;;;;;;;22.70;53.80;;;;;;499941;238;2160;-76
2021/06/09 02:10:30;;;;;;;;;;;22.70;53.80;;;;;;499892;238;1178;-76
2021/06/09 02:12:31;;;;;;;;;;;22.70;53.70;;;;;;500044;238;1074;-77
2021/06/09 02:14:33;;;;;;;;;;;22.80;53.60;;;;;;499950;238;972;-76
2021/06/09 02:16:34;;;;;;;;;;;22.70;53.50;;;;;;500004;238;1212;-76
2021/06/09 02:18:35;;;;;;;;;;;22.80;53.40;;;;;;500030;238;1250;-76
2021/06/09 02:20:36;;;;;;;;;;;22.80;53.40;;;;;;499990;238;1202;-76
2021/06/09 02:22:38;;;;;;;;;;;22.80;53.40;;;;;;499943;238;1136;-76
2021/06/09 02:24:39;;;;;;;;;;;22.80;53.50;;;;;;499921;238;1049;-76
2021/06/09 02:26:41;;;;;;;;;;;22.80;53.50;;;;;;500003;238;1198;-76
2021/06/09 02:28:42;;;;;;;;;;;22.80;53.50;;;;;;499981;238;2136;-76
2021/06/09 02:30:43;;;;;;;;;;;22.80;53.50;;;;;;499877;234;1090;-76
2021/06/09 02:32:44;;;;;;;;;;;22.70;53.60;;;;;;499901;238;1111;-76
2021/06/09 02:34:46;;;;;;;;;;;22.80;53.60;;;;;;499902;238;955;-76
2021/06/09 02:36:47;;;;;;;;;;;22.80;53.50;;;;;;499867;238;1225;-76
2021/06/09 02:38:49;;;;;;;;;;;22.80;53.40;;;;;;499854;238;1143;-76
2021/06/09 02:40:50;;;;;;;;;;;22.80;53.50;;;;;;499903;238;1106;-76
2021/06/09 02:42:51;;;;;;;;;;;22.80;53.40;;;;;;500021;238;1046;-76
2021/06/09 02:44:53;;;;;;;;;;;22.80;53.40;;;;;;499938;238;1124;-76
2021/06/09 02:46:54;;;;;;;;;;;22.70;53.50;;;;;;499924;238;1201;-76
2021/06/09 02:48:55;;;;;;;;;;;22.80;53.60;;;;;;499950;238;2176;-76
2021/06/09 02:50:57;;;;;;;;;;;22.70;53.40;;;;;;499955;238;1189;-76
2021/06/09 02:53:02;;;;;;;;;;;22.80;53.40;;;;;;499907;238;1156;-76
2021/06/09 02:54:59;;;;;;;;;;;22.80;53.40;;;;;;500050;238;1415;-76
2021/06/09 02:57:00;;;;;;;;;;;22.70;53.40;;;;;;499929;235;1204;-76
2021/06/09 02:59:02;;;;;;;;;;;22.80;53.50;;;;;;499849;238;1071;-76
2021/06/09 03:01:03;;;;;;;;;;;22.70;53.50;;;;;;499823;238;1204;-76
2021/06/09 03:03:04;;;;;;;;;;;22.80;53.60;;;;;;499906;238;1023;-76
2021/06/09 03:05:05;;;;;;;;;;;22.80;53.60;;;;;;499851;238;1289;-76
2021/06/09 03:07:07;;;;;;;;;;;22.70;53.50;;;;;;500069;238;1411;-77
2021/06/09 03:09:08;;;;;;;;;;;22.80;53.50;;;;;;499942;238;2179;-77
2021/06/09 03:11:11;;;;;;;;;;;22.80;53.50;;;;;;499946;238;1120;-76
2021/06/09 03:13:11;;;;;;;;;;;22.70;53.40;;;;;;500085;238;1304;-76
2021/06/09 03:15:13;;;;;;;;;;;22.80;53.40;;;;;;499905;238;1090;-76
2021/06/09 03:17:14;;;;;;;;;;;22.80;53.40;;;;;;499824;238;1396;-76
2021/06/09 03:19:15;;;;;;;;;;;22.70;53.40;;;;;;500069;238;1050;-76
2021/06/09 03:21:16;;;;;;;;;;;22.80;53.50;;;;;;499898;238;1164;-76
2021/06/09 03:23:17;;;;;;;;;;;22.80;53.40;;;;;;500034;238;1147;-76
2021/06/09 03:25:19;;;;;;;;;;;22.80;53.40;;;;;;499972;238;1038;-76
2021/06/09 03:27:20;;;;;;;;;;;22.70;53.40;;;;;;500038;238;1397;-76
2021/06/09 03:29:21;;;;;;;;;;;22.70;53.40;;;;;;499882;238;2180;-76
2021/06/09 03:31:23;;;;;;;;;;;22.70;53.50;;;;;;499848;238;1049;-76
2021/06/09 03:33:24;;;;;;;;;;;22.60;53.70;;;;;;499983;238;1058;-76
2021/06/09 03:35:25;;;;;;;;;;;22.50;54.10;;;;;;499917;238;1186;-76
2021/06/09 03:37:26;;;;;;;;;;;22.40;54.30;;;;;;499939;238;1155;-76
2021/06/09 03:39:28;;;;;;;;;;;22.40;54.50;;;;;;499862;238;1131;-76
2021/06/09 03:41:29;;;;;;;;;;;22.30;54.60;;;;;;499856;238;1198;-76
2021/06/09 03:43:30;;;;;;;;;;;22.30;54.70;;;;;;499919;238;1122;-76
2021/06/09 03:45:32;;;;;;;;;;;22.30;54.70;;;;;;500002;238;1074;-76
2021/06/09 03:47:33;;;;;;;;;;;22.30;54.70;;;;;;500015;238;1084;-76
2021/06/09 03:49:34;;;;;;;;;;;22.30;54.70;;;;;;499907;238;2188;-76
2021/06/09 03:51:35;;;;;;;;;;;22.30;54.80;;;;;;499858;238;1110;-76
2021/06/09 03:53:37;;;;;;;;;;;22.20;54.80;;;;;;499945;238;1068;-76
2021/06/09 03:55:38;;;;;;;;;;;22.20;54.70;;;;;;499874;234;1156;-76
2021/06/09 03:57:39;;;;;;;;;;;22.20;54.70;;;;;;499870;238;1094;-76
2021/06/09 03:59:40;;;;;;;;;;;22.20;54.70;;;;;;499936;238;1015;-76
2021/06/09 04:01:42;;;;;;;;;;;22.20;54.80;;;;;;499891;238;1138;-76
2021/06/09 04:03:43;;;;;;;;;;;22.20;54.80;;;;;;499983;238;975;-76
2021/06/09 04:05:44;;;;;;;;;;;22.30;54.60;;;;;;499865;238;1070;-76
2021/06/09 04:07:46;;;;;;;;;;;22.40;54.30;;;;;;499974;238;1118;-76
2021/06/09 04:09:47;;;;;;;;;;;22.50;54.00;;;;;;499909;238;2148;-77
2021/06/09 04:11:48;;;;;;;;;;;22.60;53.90;;;;;;499950;238;1144;-76
2021/06/09 04:13:49;;;;;;;;;;;22.60;53.70;;;;;;499940;238;949;-76
2021/06/09 04:15:51;;;;;;;;;;;22.60;53.60;;;;;;499894;238;1219;-76
2021/06/09 04:17:52;;;;;;;;;;;22.60;53.60;;;;;;500008;238;1150;-76
2021/06/09 04:19:53;;;;;;;;;;;22.60;53.70;;;;;;499786;238;1189;-76
2021/06/09 04:21:55;;;;;;;;;;;22.70;53.70;;;;;;499856;238;1216;-76
2021/06/09 04:23:56;;;;;;;;;;;22.70;53.50;;;;;;499830;238;1082;-76
2021/06/09 04:25:57;;;;;;;;;;;22.60;53.50;;;;;;499689;238;1193;-76
2021/06/09 04:27:59;;;;;;;;;;;22.60;53.60;;;;;;499766;238;1014;-76
2021/06/09 04:30:00;;;;;;;;;;;22.70;53.60;;;;;;499800;238;2141;-76
2021/06/09 04:32:01;;;;;;;;;;;22.70;53.60;;;;;;499740;238;1166;-76
2021/06/09 04:34:03;;;;;;;;;;;22.60;53.60;;;;;;499821;238;1106;-76
2021/06/09 04:36:04;;;;;;;;;;;22.70;53.70;;;;;;499650;238;1295;-76
2021/06/09 04:38:05;;;;;;;;;;;22.60;53.80;;;;;;499830;238;1073;-76
2021/06/09 04:40:06;;;;;;;;;;;22.50;54.00;;;;;;499748;238;1174;-76
2021/06/09 04:42:08;;;;;;;;;;;22.40;54.30;;;;;;499632;238;1199;-76
2021/06/09 04:44:09;;;;;;;;;;;22.30;54.60;;;;;;499880;238;1099;-77
2021/06/09 04:46:10;;;;;;;;;;;22.20;54.80;;;;;;499759;238;1214;-77
2021/06/09 04:48:12;;;;;;;;;;;22.20;55.00;;;;;;499824;238;1042;-77
2021/06/09 04:50:13;;;;;;;;;;;22.20;55.00;;;;;;499715;238;2148;-77
2021/06/09 04:52:14;;;;;;;;;;;22.20;55.10;;;;;;499800;238;1123;-77
2021/06/09 04:54:15;;;;;;;;;;;22.20;55.10;;;;;;499775;238;1016;-77
2021/06/09 04:56:17;;;;;;;;;;;22.10;55.20;;;;;;499817;238;1296;-77
2021/06/09 04:58:18;;;;;;;;;;;22.10;55.20;;;;;;499705;238;1071;-77
2021/06/09 05:00:21;;;;;;;;;;;22.10;55.20;;;;;;499639;238;1068;-77
2021/06/09 05:02:22;;;;;;;;;;;22.10;55.30;;;;;;499667;238;1176;-77
2021/06/09 05:04:23;;;;;;;;;;;22.10;55.40;;;;;;499636;238;1057;-76
2021/06/09 05:06:25;;;;;;;;;;;22.00;55.50;;;;;;499606;234;1284;-77
2021/06/09 05:08:26;;;;;;;;;;;22.00;55.50;;;;;;499652;238;1111;-77
2021/06/09 05:10:27;;;;;;;;;;;22.00;55.60;;;;;;499759;238;2145;-77
2021/06/09 05:12:28;;;;;;;;;;;21.80;55.90;;;;;;499654;238;1193;-77
2021/06/09 05:14:30;;;;;;;;;;;21.70;56.30;;;;;;499608;238;1052;-77
2021/06/09 05:16:31;;;;;;;;;;;21.60;56.50;;;;;;499496;234;1122;-76
2021/06/09 05:18:32;;;;;;;;;;;21.50;56.60;;;;;;499587;238;1055;-77
2021/06/09 05:20:34;;;;;;;;;;;21.50;56.80;;;;;;499612;238;1026;-77
2021/06/09 05:22:35;;;;;;;;;;;21.40;57.00;;;;;;499625;238;1085;-77
2021/06/09 05:24:36;;;;;;;;;;;21.30;57.00;;;;;;499589;238;1068;-77
2021/06/09 05:26:38;;;;;;;;;;;21.30;57.10;;;;;;499506;234;1553;-76
2021/06/09 05:28:39;;;;;;;;;;;21.20;57.20;;;;;;499565;238;1149;-77
2021/06/09 05:30:40;;;;;;;;;;;21.20;57.30;;;;;;499559;238;2176;-77
2021/06/09 05:32:42;;;;;;;;;;;21.20;57.30;;;;;;499579;238;1006;-77
2021/06/09 05:34:43;;;;;;;;;;;21.20;57.30;;;;;;499632;238;1017;-77
2021/06/09 05:36:44;;;;;;;;;;;21.20;57.40;;;;;;499565;238;1163;-77
2021/06/09 05:38:46;;;;;;;;;;;21.20;57.40;;;;;;499545;238;1037;-77
2021/06/09 05:40:47;;;;;;;;;;;21.20;57.40;;;;;;499361;238;1228;-76
2021/06/09 05:42:48;;;;;;;;;;;21.20;57.40;;;;;;499449;238;1108;-76
2021/06/09 05:44:50;;;;;;;;;;;21.20;57.40;;;;;;499439;238;1066;-77
2021/06/09 05:46:51;;;;;;;;;;;21.20;57.50;;;;;;499454;238;1333;-77
2021/06/09 05:48:52;;;;;;;;;;;21.20;57.50;;;;;;499435;238;1173;-76
2021/06/09 05:50:53;;;;;;;;;;;21.10;57.60;;;;;;499370;238;2179;-76
2021/06/09 05:52:55;;;;;;;;;;;21.10;57.60;;;;;;499494;238;1132;-76
2021/06/09 05:54:56;;;;;;;;;;;21.10;57.80;;;;;;499641;238;996;-76
2021/06/09 05:56:57;;;;;;;;;;;21.20;57.80;;;;;;499504;238;1295;-76
2021/06/09 05:58:58;;;;;;;;;;;21.30;57.50;;;;;;499575;238;1065;-77
2021/06/09 06:01:00;;;;;;;;;;;21.40;57.10;;;;;;499414;238;1178;-76
2021/06/09 06:03:01;;;;;;;;;;;21.50;56.80;;;;;;499412;238;1070;-76
2021/06/09 06:05:03;;;;;;;;;;;21.60;56.70;;;;;;499380;238;1297;-76
2021/06/09 06:07:04;;;;;;;;;;;21.70;56.60;;;;;;499347;238;1428;-76
2021/06/09 06:09:05;;;;;;;;;;;21.70;56.40;;;;;;499282;238;1089;-76
2021/06/09 06:11:07;;;;;;;;;;;21.70;56.40;;;;;;499131;238;2184;-77
2021/06/09 06:13:08;;;;;;;;;;;21.70;56.40;;;;;;499230;238;1173;-76
2021/06/09 06:15:09;;;;;;;;;;;21.70;56.40;;;;;;499552;238;1104;-76
2021/06/09 06:17:11;;;;;;;;;;;21.70;56.40;;;;;;499517;238;1034;-76
2021/06/09 06:19:12;;;;;;;;;;;21.70;56.40;;;;;;499493;238;1096;-76
2021/06/09 06:21:13;;;;;;;;;;;21.70;56.30;;;;;;499377;234;1204;-76
2021/06/09 06:23:14;;;;;;;;;;;21.70;56.30;;;;;;499340;238;1124;-76
2021/06/09 06:25:17;;;;;;;;;;;21.70;56.40;;;;;;499325;238;1065;-76
2021/06/09 06:27:18;;;;;;;;;;;21.70;56.20;;;;;;499414;238;1121;-76
2021/06/09 06:29:19;;;;;;;;;;;21.60;56.20;;;;;;499440;238;1004;-77
2021/06/09 06:31:20;;;;;;;;;;;21.60;56.30;;;;;;499391;238;2253;-76
2021/06/09 06:33:22;;;;;;;;;;;21.60;56.30;;;;;;499319;238;1076;-76
2021/06/09 06:35:23;;;;;;;;;;;21.60;56.30;;;;;;499222;238;1229;-76
2021/06/09 06:37:24;;;;;;;;;;;21.60;56.30;;;;;;499138;238;1059;-76
2021/06/09 06:39:25;;;;;;;;;;;21.60;56.20;;;;;;499220;238;1048;-76
2021/06/09 06:41:27;;;;;;;;;;;21.60;56.20;;;;;;499412;238;1270;-76
2021/06/09 06:43:28;;;;;;;;;;;21.60;56.20;;;;;;499287;238;1019;-77
2021/06/09 06:45:30;;;;;;;;;;;21.60;56.10;;;;;;499194;238;1123;-76
2021/06/09 06:47:31;;;;;;;;;;;21.60;56.10;;;;;;499603;238;1043;-77
2021/06/09 06:49:32;;;;;;;;;;;21.70;56.10;;;;;;499073;238;1251;-77
2021/06/09 06:51:34;;;;;;;;;;;21.60;56.10;;;;;;498862;238;2192;-76
2021/06/09 06:53:35;;;;;;;;;;;21.60;56.30;;;;;;499145;238;1153;-77
2021/06/09 06:55:36;;;;;;;;;;;21.60;56.30;;;;;;499165;238;1222;-76
2021/06/09 06:57:37;;;;;;;;;;;21.70;56.40;;;;;;499139;238;1090;-76
2021/06/09 06:59:39;;;;;;;;;;;21.70;56.30;;;;;;498982;238;1113;-76
2021/06/09 07:01:40;;;;;;;;;;;21.70;56.30;;;;;;499131;238;1273;-77
2021/06/09 07:03:41;;;;;;;;;;;21.60;56.30;;;;;;499003;238;1107;-76
2021/06/09 07:05:43;;;;;;;;;;;21.60;56.40;;;;;;498943;238;1246;-76
2021/06/09 07:07:44;;;;;;;;;;;21.60;56.40;;;;;;498982;238;1103;-76
2021/06/09 07:09:45;;;;;;;;;;;21.60;56.40;;;;;;499139;238;1069;-76
2021/06/09 07:11:46;;;;;;;;;;;21.70;56.40;;;;;;498937;238;2132;-76
2021/06/09 07:13:48;;;;;;;;;;;21.70;56.30;;;;;;499028;238;1122;-76
2021/06/09 07:15:49;;;;;;;;;;;21.70;56.40;;;;;;499266;234;1314;-76
2021/06/09 07:17:50;;;;;;;;;;;21.70;56.40;;;;;;498991;238;1061;-77
2021/06/09 07:19:52;;;;;;;;;;;21.70;56.40;;;;;;498986;238;1048;-77
2021/06/09 07:21:53;;;;;;;;;;;21.70;56.40;;;;;;498899;238;1215;-77
2021/06/09 07:23:54;;;;;;;;;;;21.80;56.50;;;;;;498963;238;1159;-76
2021/06/09 07:25:55;;;;;;;;;;;21.80;56.40;;;;;;498961;238;1199;-77
2021/06/09 07:27:57;;;;;;;;;;;21.80;56.50;;;;;;499135;234;1211;-77
2021/06/09 07:29:58;;;;;;;;;;;21.80;56.50;;;;;;499278;235;1287;-76
2021/06/09 07:31:59;;;;;;;;;;;21.70;56.80;;;;;;499452;238;2187;-77
2021/06/09 07:34:02;;;;;;;;;;;21.60;57.50;;;;;;499125;238;1123;-76
2021/06/09 07:36:02;;;;;;;;;;;21.50;57.90;;;;;;499302;238;1380;-76
2021/06/09 07:38:03;;;;;;;;;;;21.60;58.30;;;;;;499046;238;1040;-76
2021/06/09 07:40:06;;;;;;;;;;;21.60;58.30;;;;;;499217;238;1052;-77
2021/06/09 07:42:06;;;;;;;;;;;21.70;58.50;;;;;;498946;238;1958;-77
2021/06/09 07:44:07;;;;;;;;;;;21.70;58.60;;;;;;499068;238;1139;-76
2021/06/09 07:46:08;;;;;;;;;;;21.80;58.60;;;;;;498563;238;1229;-76
2021/06/09 07:48:10;;;;;;;;;;;21.80;58.70;;;;;;499115;238;1071;-76
2021/06/09 07:50:12;;;;;;;;;;;21.80;58.80;;;;;;499111;238;1066;-77
2021/06/09 07:52:13;;;;;;;;;;;21.80;58.80;;;;;;498939;238;2375;-76
2021/06/09 07:54:14;;;;;;;;;;;21.80;59.00;;;;;;498987;238;1047;-77
2021/06/09 07:56:16;;;;;;;;;;;21.80;59.10;;;;;;499074;238;1160;-76
2021/06/09 07:58:18;;;;;;;;;;;21.80;59.20;;;;;;499066;238;1431;-76
2021/06/09 08:00:18;;;;;;;;;;;21.80;59.30;;;;;;499762;238;1288;-76
2021/06/09 08:02:19;;;;;;;;;;;21.90;59.30;;;;;;499168;238;1047;-76
2021/06/09 08:04:21;;;;;;;;;;;21.80;59.30;;;;;;499125;238;1098;-77
2021/06/09 08:06:22;;;;;;;;;;;21.80;59.40;;;;;;499157;234;1250;-77
2021/06/09 08:08:23;;;;;;;;;;;21.80;59.50;;;;;;499032;238;1135;-77
2021/06/09 08:10:25;;;;;;;;;;;21.90;59.40;;;;;;498737;238;2136;-76
2021/06/09 08:12:26;;;;;;;;;;;21.80;59.50;;;;;;498766;238;1141;-77
2021/06/09 08:14:27;;;;;;;;;;;21.80;59.70;;;;;;498728;238;1156;-77
2021/06/09 08:16:29;;;;;;;;;;;21.80;59.80;;;;;;498481;234;1134;-76
2021/06/09 08:18:30;;;;;;;;;;;21.80;59.80;;;;;;498992;238;1008;-76
2021/06/09 08:20:31;;;;;;;;;;;21.80;59.80;;;;;;498780;238;1201;-76
2021/06/09 08:22:32;;;;;;;;;;;21.80;59.80;;;;;;498871;238;1195;-76
2021/06/09 08:24:34;;;;;;;;;;;21.80;59.90;;;;;;498859;238;1076;-77
2021/06/09 08:26:35;;;;;;;;;;;21.80;60.00;;;;;;498700;238;1477;-77
2021/06/09 08:28:36;;;;;;;;;;;21.80;60.00;;;;;;499104;235;1196;-76
2021/06/09 08:30:38;;;;;;;;;;;21.90;60.10;;;;;;499789;238;2184;-76
2021/06/09 08:32:39;;;;;;;;;;;21.90;60.00;;;;;;499049;238;1218;-77
2021/06/09 08:34:40;;;;;;;;;;;21.90;60.00;;;;;;498944;238;1159;-76
2021/06/09 08:36:44;;;;;;;;;;;21.90;60.10;;;;;;498972;238;1070;-77
2021/06/09 08:38:43;;;;;;;;;;;22.00;60.00;;;;;;499240;238;1382;-77
2021/06/09 08:40:44;;;;;;;;;;;22.00;60.00;;;;;;498914;238;1237;-76
2021/06/09 08:42:46;;;;;;;;;;;22.00;60.10;;;;;;499213;238;1160;-77
2021/06/09 08:44:49;;;;;;;;;;;22.00;60.10;;;;;;498815;238;1157;-77
2021/06/09 08:46:48;;;;;;;;;;;22.00;60.10;;;;;;498845;238;1406;-77
2021/06/09 08:48:49;;;;;;;;;;;22.00;60.10;;;;;;498913;238;1210;-77
2021/06/09 08:50:51;;;;;;;;;;;21.90;60.10;;;;;;499178;238;2183;-76
2021/06/09 08:52:52;;;;;;;;;;;21.90;60.30;;;;;;499052;238;1257;-76
2021/06/09 08:54:53;;;;;;;;;;;21.90;60.40;;;;;;498791;238;1051;-76
2021/06/09 08:56:54;;;;;;;;;;;21.90;60.30;;;;;;498613;238;1152;-77
2021/06/09 08:58:56;;;;;;;;;;;21.80;60.30;;;;;;498876;234;1259;-76
2021/06/09 09:00:58;;;;;;;;;;;21.70;60.30;;;;;;498781;238;1197;-77
2021/06/09 09:02:58;;;;;;;;;;;21.70;60.50;;;;;;499126;238;1273;-77
2021/06/09 09:05:00;;;;;;;;;;;21.60;60.60;;;;;;498765;238;1083;-77
2021/06/09 09:07:01;;;;;;;;;;;21.60;60.60;;;;;;498927;238;1130;-77
2021/06/09 09:09:02;;;;;;;;;;;21.50;60.70;;;;;;499055;234;1152;-76
2021/06/09 09:11:03;;;;;;;;;;;21.50;60.60;;;;;;499119;234;2184;-77
2021/06/09 09:13:05;;;;;;;;;;;21.50;60.60;;;;;;499120;238;1244;-76
2021/06/09 09:15:06;;;;;;;;;;;21.50;60.50;;;;;;498980;238;1198;-77
2021/06/09 09:17:07;;;;;;;;;;;21.50;60.60;;;;;;498871;238;1203;-76
2021/06/09 09:19:15;;;;;;;;;;;21.40;60.60;;;;;;498951;238;1112;-76
2021/06/09 09:21:10;;;;;;;;;;;21.40;60.50;;;;;;499025;234;1361;-77
2021/06/09 09:23:11;;;;;;;;;;;21.40;60.50;;;;;;499098;238;1036;-77
2021/06/09 09:25:12;;;;;;;;;;;21.40;60.60;;;;;;499186;238;1085;-77
2021/06/09 09:27:17;;;;;;;;;;;21.40;60.60;;;;;;499170;238;1129;-77
2021/06/09 09:29:15;;;;;;;;;;;21.30;60.50;;;;;;498886;238;1423;-77
2021/06/09 09:31:16;;;;;;;;;;;21.40;60.50;;;;;;498944;238;2184;-76
2021/06/09 09:33:18;;;;;;;;;;;21.40;60.30;;;;;;498854;238;1133;-76
2021/06/09 09:35:19;;;;;;;;;;;21.40;60.30;;;;;;499052;238;1281;-76
2021/06/09 09:37:20;;;;;;;;;;;21.30;60.30;;;;;;498983;238;1337;-76
2021/06/09 09:39:21;;;;;;;;;;;21.40;60.30;;;;;;499199;238;1168;-77
2021/06/09 09:41:23;;;;;;;;;;;21.30;60.20;;;;;;498963;235;1198;-76
2021/06/09 09:43:24;;;;;;;;;;;21.30;60.20;;;;;;499059;238;1160;-76
2021/06/09 09:45:27;;;;;;;;;;;21.30;60.30;;;;;;498823;238;1045;-76
2021/06/09 09:47:26;;;;;;;;;;;21.30;60.30;;;;;;499164;238;1360;-76
2021/06/09 09:49:30;;;;;;;;;;;21.30;60.20;;;;;;500072;235;1107;-77
2021/06/09 09:51:30;;;;;;;;;;;21.30;60.20;;;;;;499134;234;2180;-77
2021/06/09 09:53:31;;;;;;;;;;;21.30;60.20;;;;;;499407;238;1188;-77
2021/06/09 09:55:32;;;;;;;;;;;21.20;60.20;;;;;;499469;238;1298;-77
2021/06/09 09:57:36;;;;;;;;;;;21.20;60.30;;;;;;499288;238;1566;-76
2021/06/09 09:59:35;;;;;;;;;;;21.20;60.30;;;;;;499484;238;1475;-76
2021/06/09 10:01:36;;;;;;;;;;;21.20;60.30;;;;;;499141;238;1290;-77
2021/06/09 10:03:38;;;;;;;;;;;21.20;60.30;;;;;;499803;238;877;-76
2021/06/09 10:05:39;;;;;;;;;;;21.20;60.30;;;;;;499177;238;1429;-76
2021/06/09 10:07:40;;;;;;;;;;;21.20;60.30;;;;;;498985;238;1154;-76
2021/06/09 10:09:43;;;;;;;;;;;21.20;60.20;;;;;;498957;238;1077;-76
2021/06/09 10:11:43;;;;;;;;;;;21.20;60.20;;;;;;499340;238;2199;-76
2021/06/09 10:13:45;;;;;;;;;;;21.20;60.00;;;;;;499628;238;1049;-76
2021/06/09 10:15:47;;;;;;;;;;;21.20;60.00;;;;;;499160;238;1352;-76
2021/06/09 10:17:48;;;;;;;;;;;21.20;60.00;;;;;;499254;238;1141;-77
2021/06/09 10:19:50;;;;;;;;;;;21.20;60.00;;;;;;499280;238;1151;-76
2021/06/09 10:21:51;;;;;;;;;;;21.20;59.90;;;;;;499338;238;1219;-77
2021/06/09 10:23:52;;;;;;;;;;;21.20;60.00;;;;;;499392;238;1300;-77
2021/06/09 10:25:53;;;;;;;;;;;21.20;60.00;;;;;;498883;238;1163;-77
2021/06/09 10:27:55;;;;;;;;;;;21.20;60.00;;;;;;498762;238;1186;-77
2021/06/09 10:29:56;;;;;;;;;;;21.20;60.10;;;;;;499139;238;1395;-77
2021/06/09 10:31:57;;;;;;;;;;;21.20;59.90;;;;;;498869;238;2191;-76
2021/06/09 10:33:59;;;;;;;;;;;21.20;60.00;;;;;;499585;238;833;-76
2021/06/09 10:36:00;;;;;;;;;;;21.20;59.90;;;;;;499104;238;1122;-77
2021/06/09 10:38:01;;;;;;;;;;;21.10;59.90;;;;;;498978;238;1210;-76
2021/06/09 10:40:03;;;;;;;;;;;21.10;60.00;;;;;;498928;238;1107;-76
2021/06/09 10:42:04;;;;;;;;;;;21.20;60.00;;;;;;499048;238;1216;-76
2021/06/09 10:44:05;;;;;;;;;;;21.10;60.00;;;;;;498902;238;1249;-77
2021/06/09 10:46:06;;;;;;;;;;;21.10;60.00;;;;;;498806;238;1193;-76
2021/06/09 10:48:08;;;;;;;;;;;21.10;60.00;;;;;;498960;238;1078;-76
2021/06/09 10:50:09;;;;;;;;;;;21.10;60.00;;;;;;499059;235;1397;-76
2021/06/09 10:52:10;;;;;;;;;;;21.10;60.00;;;;;;499070;238;2189;-76
2021/06/09 10:54:14;;;;;;;;;;;21.10;60.00;;;;;;499179;238;1127;-76
2021/06/09 10:56:13;;;;;;;;;;;21.00;60.00;;;;;;499187;238;1328;-77
2021/06/09 10:58:14;;;;;;;;;;;21.00;60.00;;;;;;499158;238;1039;-76
2021/06/09 11:00:15;;;;;;;;;;;21.00;60.00;;;;;;498959;235;1197;-77
2021/06/09 11:02:16;;;;;;;;;;;21.00;60.00;;;;;;498989;238;1128;-77
2021/06/09 11:04:18;;;;;;;;;;;21.00;59.90;;;;;;498848;238;1071;-76
2021/06/09 11:06:19;;;;;;;;;;;21.20;59.50;;;;;;498948;238;1391;-76
2021/06/09 11:08:20;;;;;;;;;;;21.20;59.10;;;;;;499275;238;1031;-76
2021/06/09 11:10:22;;;;;;;;;;;21.30;58.80;;;;;;499052;238;1206;-76
2021/06/09 11:12:23;;;;;;;;;;;21.30;58.60;;;;;;499031;238;2184;-76
2021/06/09 11:14:25;;;;;;;;;;;21.30;58.40;;;;;;499188;238;1233;-76
2021/06/09 11:16:26;;;;;;;;;;;21.40;58.40;;;;;;499083;238;1430;-76
2021/06/09 11:18:27;;;;;;;;;;;21.40;58.10;;;;;;498936;238;1087;-76
2021/06/09 11:20:30;;;;;;;;;;;21.40;58.10;;;;;;498901;238;1112;-76
2021/06/09 11:22:30;;;;;;;;;;;21.30;58.00;;;;;;498720;238;1242;-76
2021/06/09 11:24:31;;;;;;;;;;;21.30;58.00;;;;;;498690;238;1102;-76
2021/06/09 11:26:33;;;;;;;;;;;21.30;58.00;;;;;;498729;238;1069;-76
2021/06/09 11:28:34;;;;;;;;;;;21.40;57.90;;;;;;498852;238;1028;-77
2021/06/09 11:30:35;;;;;;;;;;;21.40;57.80;;;;;;499000;238;1083;-77
2021/06/09 11:32:36;;;;;;;;;;;21.40;57.70;;;;;;498958;238;2184;-77
2021/06/09 11:34:38;;;;;;;;;;;21.40;57.50;;;;;;498946;238;1050;-76
2021/06/09 11:36:40;;;;;;;;;;;21.40;57.50;;;;;;498590;238;1303;-76
2021/06/09 11:38:41;;;;;;;;;;;21.40;57.40;;;;;;498825;238;1969;-77
2021/06/09 11:40:42;;;;;;;;;;;21.20;57.80;;;;;;498843;238;1082;-76
2021/06/09 11:42:43;;;;;;;;;;;21.20;58.30;;;;;;498933;238;1119;-77
2021/06/09 11:44:44;;;;;;;;;;;21.10;58.60;;;;;;498676;238;1075;-77
2021/06/09 11:46:46;;;;;;;;;;;21.00;58.70;;;;;;498672;238;1237;-76
2021/06/09 11:48:47;;;;;;;;;;;21.00;58.80;;;;;;499043;238;1137;-76
2021/06/09 11:50:50;;;;;;;;;;;21.00;59.00;;;;;;498935;238;1066;-76
2021/06/09 11:52:50;;;;;;;;;;;20.90;58.90;;;;;;498876;238;2173;-76
2021/06/09 11:54:51;;;;;;;;;;;20.90;58.90;;;;;;498825;238;1092;-77
2021/06/09 11:56:52;;;;;;;;;;;20.90;58.90;;;;;;498805;238;1254;-77